Time;durP1;ratioP1;P1;durP2;ratioP2;P2;SDS_P1;SDS_P2;PMS_P1;PMS_P2;Temp;Humidity;BMP_temperature;BMP_pressure;BME280_temperature;BME280_humidity;BME280_pressure;Samples;Min_cycle;Max_cycle;Signal;HPM_P1;HPM_P2
2023/06/07 00:03:09;;;;;;;7.38;3.90;;;;;;;21.69;37.96;101879.34;16106832;19;131188;-43
2023/06/07 00:08:31;;;;;;;9.13;4.25;;;;;;;21.68;38.02;101880.44;16134960;19;130499;-47
2023/06/07 00:13:54;;;;;;;9.25;4.20;;;;;;;21.66;38.33;101877.91;16140407;19;130917;-45
2023/06/07 00:19:21;;;;;;;8.32;3.90;;;;;;;21.65;38.52;101872.59;16143937;19;129793;-43
2023/06/07 00:24:42;;;;;;;8.15;3.67;;;;;;;21.65;38.17;101880.94;16142503;19;130352;-44
2023/06/07 00:30:05;;;;;;;7.22;3.88;;;;;;;21.63;38.48;101878.38;16137362;19;129453;-41
2023/06/07 00:35:27;;;;;;;6.53;3.70;;;;;;;21.63;38.46;101883.97;16141241;19;130404;-44
2023/06/07 00:40:50;;;;;;;10.82;4.03;;;;;;;21.63;38.17;101886.75;16143874;19;130552;-43
2023/06/07 00:46:13;;;;;;;7.53;4.03;;;;;;;21.61;38.25;101879.72;16141378;19;131766;-42
2023/06/07 00:51:36;;;;;;;7.28;3.97;;;;;;;21.61;38.23;101874.16;16143098;19;130683;-44
2023/06/07 00:56:58;;;;;;;9.25;3.80;;;;;;;21.59;38.47;101865.19;16140148;19;130366;-47
2023/06/07 01:02:20;;;;;;;8.93;4.18;;;;;;;21.57;37.93;101878.50;16135274;19;131294;-44
2023/06/07 01:07:48;;;;;;;10.85;3.75;;;;;;;21.56;38.39;101871.25;16135261;19;129345;-44
2023/06/07 01:13:11;;;;;;;4.57;3.27;;;;;;;21.56;38.21;101876.81;16130104;19;130177;-43
2023/06/07 01:18:33;;;;;;;7.35;3.80;;;;;;;21.55;37.91;101873.19;16131498;19;129464;-48
2023/06/07 01:23:56;;;;;;;7.35;3.85;;;;;;;21.53;37.88;101872.59;16120775;19;129629;-46
2023/06/07 01:29:21;;;;;;;5.90;3.50;;;;;;;21.55;38.32;101869.56;16113133;19;130202;-43
2023/06/07 01:34:43;;;;;;;7.75;3.80;;;;;;;21.54;38.34;101862.31;16121937;19;130435;-43
2023/06/07 01:40:07;;;;;;;7.60;4.20;;;;;;;21.52;38.02;101860.63;16120531;19;129406;-46
2023/06/07 01:45:29;;;;;;;5.43;3.30;;;;;;;21.53;37.88;101867.03;16110512;19;133319;-44
2023/06/07 01:50:52;;;;;;;6.25;3.72;;;;;;;21.52;37.86;101865.31;16115791;19;129543;-48
2023/06/07 01:56:21;;;;;;;5.72;3.45;;;;;;;21.52;37.93;101865.31;16122424;19;133813;-48
2023/06/07 02:01:49;;;;;;;7.78;3.42;;;;;;;21.49;38.05;101861.09;16118411;19;130219;-44
2023/06/07 02:07:22;;;;;;;5.35;3.67;;;;;;;21.49;38.01;101863.88;16119415;19;129643;-43
2023/06/07 02:12:45;;;;;;;5.45;3.25;;;;;;;21.48;38.01;101851.03;16119722;19;129661;-42
2023/06/07 02:18:07;;;;;;;7.65;3.28;;;;;;;21.48;37.95;101850.16;16117752;19;130053;-44
2023/06/07 02:23:29;;;;;;;7.95;3.47;;;;;;;21.47;38.13;101857.69;16119247;19;129495;-42
2023/06/07 02:28:51;;;;;;;5.55;3.40;;;;;;;21.47;37.93;101856.84;16116364;19;129479;-42
2023/06/07 02:34:14;;;;;;;7.32;3.47;;;;;;;21.46;37.71;101860.72;16118004;19;129455;-42
2023/06/07 02:39:35;;;;;;;6.43;3.58;;;;;;;21.44;37.76;101847.03;16117349;19;130317;-47
2023/06/07 02:44:58;;;;;;;6.28;3.35;;;;;;;21.44;37.78;101860.94;16115660;19;130230;-43
2023/06/07 02:50:21;;;;;;;5.57;3.10;;;;;;;21.43;37.74;101858.41;16114859;19;130592;-44
2023/06/07 02:55:43;;;;;;;6.22;3.33;;;;;;;21.43;37.87;101858.41;16112418;19;131163;-46
2023/06/07 03:01:07;;;;;;;7.13;3.67;;;;;;;21.41;37.55;101853.09;16114305;19;129486;-45
2023/06/07 03:06:29;;;;;;;5.80;3.17;;;;;;;21.41;37.75;101858.66;16116453;19;131234;-43
2023/06/07 03:11:51;;;;;;;6.20;3.40;;;;;;;21.41;37.98;101863.38;16114153;19;131197;-41
2023/06/07 03:17:15;;;;;;;5.72;3.13;;;;;;;21.39;37.76;101863.63;16113948;19;129442;-42
2023/06/07 03:22:37;;;;;;;8.15;3.53;;;;;;;21.38;37.62;101867.50;16114593;19;129583;-44
2023/06/07 03:27:59;;;;;;;5.90;3.40;;;;;;;21.37;37.65;101863.00;16112571;19;130526;-44
2023/06/07 03:33:21;;;;;;;5.63;3.38;;;;;;;21.36;37.88;101861.31;16115810;19;130755;-43
2023/06/07 03:38:43;;;;;;;7.05;3.83;;;;;;;21.35;37.63;101862.41;16112571;19;130061;-45
2023/06/07 03:44:05;;;;;;;7.10;3.33;;;;;;;21.33;37.67;101862.66;16108293;19;130264;-42
2023/06/07 03:49:27;;;;;;;8.30;3.40;;;;;;;21.32;37.36;101865.66;16113799;19;130265;-43
2023/06/07 03:54:50;;;;;;;5.82;3.47;;;;;;;21.32;37.75;101862.88;16111565;19;130166;-46
2023/06/07 04:00:14;;;;;;;4.82;3.30;;;;;;;21.31;37.57;101863.97;16111115;19;130775;-43
2023/06/07 04:05:38;;;;;;;6.30;3.07;;;;;;;21.29;37.56;101867.00;16109270;19;131806;-47
2023/06/07 04:11:01;;;;;;;4.10;2.97;;;;;;;21.28;37.81;101859.75;16110662;19;130207;-41
2023/06/07 04:16:23;;;;;;;6.45;3.05;;;;;;;21.29;37.80;101877.31;16108605;19;131496;-50
2023/06/07 04:21:45;;;;;;;8.40;3.70;;;;;;;21.28;37.61;101886.75;16109065;19;131369;-48
2023/06/07 04:27:11;;;;;;;5.95;3.60;;;;;;;21.27;37.46;101885.88;16109619;19;131199;-51
2023/06/07 04:32:33;;;;;;;5.03;3.17;;;;;;;21.27;37.61;101879.47;16111181;19;129452;-49
2023/06/07 04:37:55;;;;;;;5.55;3.45;;;;;;;21.26;37.34;101883.34;16112714;19;129782;-48
2023/06/07 04:43:18;;;;;;;8.07;3.60;;;;;;;21.25;37.40;101887.22;16110772;19;129479;-50
2023/06/07 04:48:40;;;;;;;5.88;3.22;;;;;;;21.23;37.52;101890.25;16111900;19;129963;-50
2023/06/07 04:54:04;;;;;;;6.38;3.60;;;;;;;21.22;37.32;101885.78;16116657;19;129931;-51
2023/06/07 04:59:34;;;;;;;5.95;3.78;;;;;;;21.22;37.26;101888.56;16125532;19;129929;-48
2023/06/07 05:04:57;;;;;;;9.15;3.60;;;;;;;21.21;37.69;101889.63;16125100;19;130343;-50
2023/06/07 05:10:19;;;;;;;6.40;3.47;;;;;;;21.21;37.71;101892.41;16121842;19;130678;-43
2023/06/07 05:15:41;;;;;;;7.57;3.55;;;;;;;21.19;37.70;101892.63;16121868;19;130477;-45
2023/06/07 05:21:03;;;;;;;6.95;3.50;;;;;;;21.18;37.44;101890.94;16118799;19;129777;-47
2023/06/07 05:26:25;;;;;;;6.57;3.50;;;;;;;21.17;37.27;101889.25;16119515;19;131279;-45
2023/06/07 05:31:46;;;;;;;8.55;3.08;;;;;;;21.16;37.33;101900.63;16120718;19;129918;-42
2023/06/07 05:37:08;;;;;;;8.00;3.35;;;;;;;21.16;37.53;101901.50;16118554;19;130409;-46
2023/06/07 05:42:30;;;;;;;6.72;3.30;;;;;;;21.15;37.15;101905.34;16120615;19;130575;-43
2023/06/07 05:47:52;;;;;;;5.30;3.33;;;;;;;21.14;37.42;101911.16;16121386;19;129874;-44
2023/06/07 05:53:16;;;;;;;7.18;3.20;;;;;;;21.14;37.62;101920.34;16117265;19;130695;-43
2023/06/07 05:58:37;;;;;;;7.78;3.42;;;;;;;21.13;37.13;101921.44;16117990;19;130960;-42
2023/06/07 06:03:59;;;;;;;3.97;3.08;;;;;;;21.14;37.31;101917.56;16116998;19;130746;-42
2023/06/07 06:09:22;;;;;;;6.60;3.58;;;;;;;21.12;37.40;101922.53;16119171;19;130432;-45
2023/06/07 06:14:47;;;;;;;;;;;;;;;21.10;37.27;101924.69;16116250;19;129483;-44
2023/06/07 06:20:09;;;;;;;8.02;3.50;;;;;;;21.12;37.51;101928.09;16116124;19;129653;-43
2023/06/07 06:25:31;;;;;;;17.42;4.43;;;;;;;21.10;37.33;101930.25;16115369;19;132585;-43
2023/06/07 06:30:53;;;;;;;8.88;3.40;;;;;;;21.16;37.54;101932.09;16116770;19;130223;-44
2023/06/07 06:36:15;;;;;;;12.95;3.47;;;;;;;21.31;36.99;101930.75;16111745;19;130515;-42
2023/06/07 06:41:38;;;;;;;8.05;3.72;;;;;;;21.38;37.31;101937.09;16117754;19;129519;-43
2023/06/07 06:47:00;;;;;;;8.82;3.65;;;;;;;21.47;37.06;101940.38;16116948;19;131249;-41
2023/06/07 06:52:24;;;;;;;10.32;3.45;;;;;;;21.54;37.21;101943.91;16114095;19;129552;-42
2023/06/07 06:57:46;;;;;;;9.18;3.15;;;;;;;21.51;36.94;101942.44;16113831;19;130369;-46
2023/06/07 07:03:08;;;;;;;9.48;3.20;;;;;;;21.52;37.04;101944.16;16118567;19;129856;-46
2023/06/07 07:08:32;;;;;;;10.15;3.47;;;;;;;21.55;37.00;101941.94;16117078;19;129540;-44
2023/06/07 07:13:53;;;;;;;15.70;4.22;;;;;;;21.51;37.23;101941.59;16116420;19;129497;-42
2023/06/07 07:19:15;;;;;;;7.13;3.30;;;;;;;21.52;36.95;101944.16;16111568;19;130045;-44
2023/06/07 07:24:37;;;;;;;5.95;3.13;;;;;;;21.55;37.13;101942.81;16113228;19;130331;-47
2023/06/07 07:30:01;;;;;;;7.93;3.50;;;;;;;21.57;36.78;101945.34;16113186;19;129469;-43
2023/06/07 07:35:24;;;;;;;10.27;4.03;;;;;;;21.55;37.07;101947.50;16111768;19;130853;-45
2023/06/07 07:40:47;;;;;;;6.43;3.45;;;;;;;21.57;37.36;101954.56;16112275;19;129411;-44
2023/06/07 07:46:09;;;;;;;10.68;3.30;;;;;;;21.60;37.13;101965.19;16110732;19;129933;-42
2023/06/07 07:51:31;;;;;;;5.47;2.80;;;;;;;21.57;37.13;101957.34;16107668;19;129353;-44
2023/06/07 07:56:53;;;;;;;5.75;3.08;;;;;;;21.57;36.90;101965.69;16109736;19;130050;-46
2023/06/07 08:02:15;;;;;;;5.20;3.10;;;;;;;21.56;37.00;101966.78;16109333;19;130608;-49
2023/06/07 08:07:37;;;;;;;8.57;3.13;;;;;;;21.58;37.14;101972.09;16111260;19;129753;-46
2023/06/07 08:12:59;;;;;;;5.30;2.95;;;;;;;21.62;36.89;101965.81;16116664;19;131324;-43
2023/06/07 08:18:21;;;;;;;5.78;3.00;;;;;;;21.66;36.85;101971.75;16112498;19;129383;-45
2023/06/07 08:23:44;;;;;;;5.57;3.33;;;;;;;21.69;37.05;101965.69;16111625;19;131639;-49
2023/06/07 08:29:06;;;;;;;6.57;3.58;;;;;;;21.71;37.17;101971.03;16120536;19;130183;-45
2023/06/07 08:34:29;;;;;;;4.53;2.70;;;;;;;21.74;36.92;101956.59;16124499;19;129783;-43
2023/06/07 08:39:54;;;;;;;5.72;3.10;;;;;;;21.77;37.01;101956.13;16125821;19;130017;-43
2023/06/07 08:45:17;;;;;;;5.28;2.58;;;;;;;21.80;36.83;101955.63;16125725;19;131886;-45
2023/06/07 08:50:41;;;;;;;5.90;2.72;;;;;;;21.81;36.89;101947.03;16128678;19;133921;-44
2023/06/07 08:56:05;;;;;;;7.10;3.13;;;;;;;21.83;36.91;101952.38;16128643;19;130181;-45
2023/06/07 09:01:29;;;;;;;6.75;3.30;;;;;;;21.85;36.90;101954.91;16124060;19;130514;-45
2023/06/07 09:06:52;;;;;;;;;;;;;;;21.81;36.98;101935.88;16122602;19;129481;-44
2023/06/07 09:12:14;;;;;;;6.20;3.28;;;;;;;21.86;37.04;101942.69;16124770;19;134593;-46
2023/06/07 09:17:53;;;;;;;8.55;3.13;;;;;;;21.87;36.76;101944.38;16125986;19;129382;-43
2023/06/07 09:23:16;;;;;;;5.20;2.67;;;;;;;21.82;36.88;101932.00;16123261;19;130110;-45
2023/06/07 09:28:38;;;;;;;4.50;2.63;;;;;;;21.82;37.11;101932.00;16124836;19;130460;-43
2023/06/07 09:34:22;;;;;;;5.75;2.55;;;;;;;21.84;37.27;101923.44;16126237;19;130307;-46
2023/06/07 09:39:44;;;;;;;5.43;3.30;;;;;;;21.80;37.18;101923.06;16115772;19;129122;-45
2023/06/07 09:45:17;;;;;;;9.43;3.20;;;;;;;21.86;37.74;101921.22;16120663;19;129457;-45
2023/06/07 09:50:55;;;;;;;6.38;3.20;;;;;;;21.87;37.33;101927.66;16119607;19;134012;-44
2023/06/07 09:56:17;;;;;;;7.22;3.03;;;;;;;21.84;37.52;101934.56;16118608;19;131182;-43
2023/06/07 10:01:46;;;;;;;7.43;3.22;;;;;;;21.83;37.45;101928.13;16117218;19;130513;-47
2023/06/07 10:07:09;;;;;;;6.03;2.97;;;;;;;21.83;37.54;101925.34;16117476;19;130636;-45
2023/06/07 10:12:32;;;;;;;4.38;2.88;;;;;;;21.83;37.66;101928.13;16119072;19;129323;-48
2023/06/07 10:17:55;;;;;;;6.40;3.20;;;;;;;21.82;37.41;101920.88;16118824;19;129430;-44
2023/06/07 10:23:28;;;;;;;8.15;3.10;;;;;;;21.83;37.48;101921.75;16118553;19;130131;-45
2023/06/07 10:28:55;;;;;;;6.85;3.42;;;;;;;21.82;37.74;101915.31;16117501;19;129268;-42
2023/06/07 10:34:18;;;;;;;5.20;2.80;;;;;;;21.81;37.56;101907.19;16117361;19;129428;-43
2023/06/07 10:39:40;;;;;;;10.02;3.38;;;;;;;21.81;37.81;101894.09;16115354;19;129768;-45
2023/06/07 10:45:03;;;;;;;6.47;3.33;;;;;;;21.82;37.83;101912.50;16117735;19;130228;-43
2023/06/07 10:50:28;;;;;;;4.57;3.03;;;;;;;21.84;37.73;101901.16;16114117;19;129714;-44
2023/06/07 10:55:50;;;;;;;6.90;2.80;;;;;;;21.82;37.83;101904.16;16111553;19;129689;-45
2023/06/07 11:01:23;;;;;;;5.07;3.00;;;;;;;21.86;37.84;101903.69;16114063;19;130429;-44
2023/06/07 11:07:14;;;;;;;7.15;3.33;;;;;;;21.86;37.90;101906.47;16113489;19;130809;-46
2023/06/07 11:12:43;;;;;;;7.18;3.00;;;;;;;21.85;37.83;101893.63;16114944;19;130413;-46
2023/06/07 11:18:07;;;;;;;5.80;3.10;;;;;;;21.86;37.94;101892.53;16116519;19;129564;-45
2023/06/07 11:23:37;;;;;;;6.90;3.30;;;;;;;21.85;38.17;101902.81;16113569;19;129830;-43
2023/06/07 11:29:00;;;;;;;7.80;3.05;;;;;;;21.86;38.24;101893.38;16113513;19;133829;-43
2023/06/07 11:34:22;;;;;;;4.60;2.80;;;;;;;21.87;37.87;101888.66;16113879;19;129757;-42
2023/06/07 11:39:45;;;;;;;8.23;3.40;;;;;;;21.86;38.02;101887.78;16109696;19;130753;-46
2023/06/07 11:45:08;;;;;;;7.07;3.30;;;;;;;21.88;38.16;101884.78;16109656;19;129693;-44
2023/06/07 11:50:30;;;;;;;4.97;3.03;;;;;;;21.89;37.87;101872.56;16110080;19;129840;-42
2023/06/07 11:55:52;;;;;;;5.93;3.22;;;;;;;21.88;38.10;101874.47;16111354;19;130332;-44
2023/06/07 12:01:15;;;;;;;4.97;2.97;;;;;;;21.88;38.10;101879.22;16106555;19;132038;-46
2023/06/07 12:06:37;;;;;;;5.75;2.92;;;;;;;21.88;38.02;101890.34;16113636;19;130546;-44
2023/06/07 12:11:59;;;;;;;7.70;3.15;;;;;;;21.86;38.16;101896.16;16113116;19;129387;-47
2023/06/07 12:17:21;;;;;;;5.60;3.22;;;;;;;21.85;38.09;101894.47;16111348;19;129461;-46
2023/06/07 12:22:43;;;;;;;5.82;3.35;;;;;;;21.84;38.18;101901.16;16111286;19;131148;-48
2023/06/07 12:28:06;;;;;;;6.07;3.17;;;;;;;21.81;38.17;101899.69;16109836;19;129432;-45
2023/06/07 12:33:31;;;;;;;6.30;2.90;;;;;;;21.80;38.14;101895.19;16108876;19;129547;-43
2023/06/07 12:38:53;;;;;;;8.90;2.88;;;;;;;21.79;38.46;101896.28;16108572;19;130793;-44
2023/06/07 12:44:15;;;;;;;7.10;2.88;;;;;;;21.80;38.27;101891.56;16107735;19;129802;-45
2023/06/07 12:49:37;;;;;;;9.30;3.40;;;;;;;21.79;38.31;101878.75;16109046;19;130077;-45
2023/06/07 12:54:59;;;;;;;5.78;2.60;;;;;;;21.79;38.24;101884.31;16106954;19;133712;-46
2023/06/07 13:00:22;;;;;;;5.38;3.08;;;;;;;21.78;38.40;101875.13;16105896;19;130402;-48
2023/06/07 13:05:44;;;;;;;8.68;3.30;;;;;;;21.79;38.52;101870.38;16105648;19;130171;-43
2023/06/07 13:11:05;;;;;;;7.50;2.80;;;;;;;21.78;38.50;101863.13;16107486;19;130033;-45
2023/06/07 13:16:29;;;;;;;5.30;3.22;;;;;;;21.78;38.33;101866.78;16115558;19;129678;-46
2023/06/07 13:21:51;;;;;;;4.25;3.20;;;;;;;21.78;38.66;101858.41;16123686;19;131524;-43
2023/06/07 13:27:13;;;;;;;7.70;3.28;;;;;;;21.77;38.50;101853.94;16122204;19;129178;-43
2023/06/07 13:32:35;;;;;;;6.20;2.80;;;;;;;21.78;38.72;101854.75;16121470;19;130258;-46
2023/06/07 13:38:00;;;;;;;4.55;2.72;;;;;;;21.77;38.43;101851.16;16122277;19;130736;-43
2023/06/07 13:43:22;;;;;;;4.90;2.90;;;;;;;21.78;38.66;101854.75;16121683;19;129625;-44
2023/06/07 13:49:04;;;;;;;6.30;2.88;;;;;;;21.77;39.07;101851.16;16119962;19;131409;-48
2023/06/07 13:54:26;;;;;;;5.57;3.20;;;;;;;21.77;38.70;101844.72;16121116;19;129727;-43
2023/06/07 13:59:49;;;;;;;3.83;2.53;;;;;;;21.77;38.90;101842.78;16121870;19;130303;-44
2023/06/07 14:05:13;;;;;;;4.32;2.85;;;;;;;21.78;38.84;101841.69;16121157;19;129317;-43
2023/06/07 14:10:35;;;;;;;5.60;3.10;;;;;;;21.80;38.69;101833.09;16118329;19;129708;-44
2023/06/07 14:15:57;;;;;;;5.88;3.00;;;;;;;21.80;38.79;101817.19;16118805;19;130054;-44
2023/06/07 14:21:19;;;;;;;3.38;2.72;;;;;;;21.81;38.59;101813.31;16118776;19;133350;-44
2023/06/07 14:26:41;;;;;;;6.55;2.53;;;;;;;21.82;38.65;101808.63;16115282;19;129203;-43
2023/06/07 14:32:04;;;;;;;5.38;3.05;;;;;;;21.83;38.66;101796.38;16117622;19;131114;-44
2023/06/07 14:37:26;;;;;;;5.97;2.60;;;;;;;21.83;38.50;101788.88;16117008;19;131103;-42
2023/06/07 14:42:48;;;;;;;4.28;2.78;;;;;;;21.84;38.60;101784.16;16116449;19;129516;-43
2023/06/07 14:48:10;;;;;;;4.88;3.20;;;;;;;21.85;38.84;101776.63;16114397;19;130755;-46
2023/06/07 14:53:32;;;;;;;5.18;2.90;;;;;;;21.85;38.92;101780.25;16115600;19;132214;-42
2023/06/07 14:58:54;;;;;;;5.25;3.20;;;;;;;21.85;38.85;101774.69;16117355;19;130011;-44
2023/06/07 15:04:16;;;;;;;4.05;2.50;;;;;;;21.87;38.90;101777.22;16118759;19;129810;-45
2023/06/07 15:09:38;;;;;;;3.40;2.40;;;;;;;21.86;38.38;101764.41;16116389;19;129530;-42
2023/06/07 15:15:00;;;;;;;3.38;2.38;;;;;;;21.87;38.85;101766.09;16113405;19;130435;-45
2023/06/07 15:20:23;;;;;;;5.65;2.60;;;;;;;21.88;38.65;101763.03;16112288;19;131674;-43
2023/06/07 15:25:46;;;;;;;5.22;2.88;;;;;;;21.88;38.56;101759.44;16113696;19;129470;-44
2023/06/07 15:31:10;;;;;;;3.50;2.67;;;;;;;21.88;38.61;101757.47;16116930;19;130020;-45
2023/06/07 15:36:31;;;;;;;4.90;3.13;;;;;;;21.88;38.56;101751.06;16112216;19;131192;-42
2023/06/07 15:41:53;;;;;;;3.50;2.45;;;;;;;21.88;38.46;101743.53;16114916;19;129661;-46
2023/06/07 15:47:16;;;;;;;4.18;2.80;;;;;;;21.89;38.40;101734.09;16113403;19;131678;-46
2023/06/07 15:52:38;;;;;;;6.07;2.90;;;;;;;21.90;38.32;101726.59;16112508;19;129196;-43
2023/06/07 15:58:00;;;;;;;4.82;2.70;;;;;;;21.91;38.59;101722.72;16113099;19;129362;-43
2023/06/07 16:03:22;;;;;;;5.78;3.08;;;;;;;21.91;38.59;101717.16;16113066;19;129408;-47
2023/06/07 16:08:44;;;;;;;6.72;2.38;;;;;;;21.91;38.40;101714.38;16111900;19;129894;-42
2023/06/07 16:14:10;;;;;;;4.53;2.40;;;;;;;21.92;38.54;101702.09;16110777;19;131743;-43
2023/06/07 16:19:32;;;;;;;3.38;2.50;;;;;;;21.91;38.26;101694.88;16111507;19;130463;-45
2023/06/07 16:24:54;;;;;;;3.55;2.65;;;;;;;21.89;38.19;101685.91;16110864;19;131172;-46
2023/06/07 16:30:16;;;;;;;6.60;3.15;;;;;;;21.90;38.52;101682.03;16110703;19;131925;-46
2023/06/07 16:35:41;;;;;;;6.00;3.15;;;;;;;21.89;38.56;101683.13;16107596;19;130020;-44
2023/06/07 16:41:05;;;;;;;4.63;2.65;;;;;;;21.88;38.21;101684.22;16107823;19;129725;-43
2023/06/07 16:46:27;;;;;;;4.43;2.72;;;;;;;21.87;38.17;101688.94;16106762;19;129988;-48
2023/06/07 16:51:49;;;;;;;3.83;2.72;;;;;;;21.88;37.94;101678.66;16125119;19;130013;-43
2023/06/07 16:57:11;;;;;;;5.85;3.10;;;;;;;21.89;38.23;101678.38;16123953;19;129468;-49
2023/06/07 17:02:33;;;;;;;5.60;2.50;;;;;;;21.90;37.93;101687.59;16128957;19;129458;-46
2023/06/07 17:07:56;;;;;;;7.78;2.58;;;;;;;21.88;37.78;101685.03;16121834;19;131375;-45
2023/06/07 17:13:19;;;;;;;7.45;3.30;;;;;;;21.91;37.94;101686.50;16122980;19;130140;-47
2023/06/07 17:18:40;;;;;;;5.40;3.08;;;;;;;21.91;37.67;101683.72;16124115;19;130991;-43
2023/06/07 17:24:02;;;;;;;5.50;2.95;;;;;;;21.91;37.87;101683.72;16122141;19;130485;-43
2023/06/07 17:29:25;;;;;;;7.32;3.35;;;;;;;21.91;37.72;101678.16;16123460;19;129815;-46
2023/06/07 17:34:50;;;;;;;6.15;3.05;;;;;;;21.90;37.71;101677.28;16120930;19;129188;-44
2023/06/07 17:40:12;;;;;;;9.07;3.00;;;;;;;21.89;37.51;101686.75;16120283;19;130181;-43
2023/06/07 17:45:34;;;;;;;6.63;3.50;;;;;;;21.90;37.66;101684.81;16120711;19;129608;-47
2023/06/07 17:50:56;;;;;;;6.13;3.05;;;;;;;21.89;37.60;101685.91;16120023;19;129454;-47
2023/06/07 17:56:18;;;;;;;4.97;3.10;;;;;;;21.88;37.68;101687.00;16120417;19;129661;-47
2023/06/07 18:01:41;;;;;;;4.47;2.88;;;;;;;21.86;37.63;101687.22;16120087;19;129550;-45
2023/06/07 18:07:04;;;;;;;7.55;2.85;;;;;;;21.85;37.59;101687.50;16122961;19;129823;-45
2023/06/07 18:12:26;;;;;;;5.05;2.47;;;;;;;21.83;37.56;101688.59;16119287;19;129655;-45
2023/06/07 18:17:48;;;;;;;5.32;2.72;;;;;;;21.82;37.53;101681.31;16120160;19;129807;-47
2023/06/07 18:23:13;;;;;;;7.43;3.00;;;;;;;21.85;37.58;101687.50;16119231;19;129282;-42
2023/06/07 18:28:36;;;;;;;4.47;2.58;;;;;;;21.81;37.83;101689.94;16117726;19;129749;-43
2023/06/07 18:33:59;;;;;;;5.68;2.95;;;;;;;21.79;37.58;101692.97;16119522;19;129855;-45
2023/06/07 18:39:22;;;;;;;3.88;2.60;;;;;;;21.79;37.37;101689.34;16112288;19;129424;-44
2023/06/07 18:44:44;;;;;;;4.97;2.80;;;;;;;21.78;37.53;101691.28;16119087;19;131562;-42
2023/06/07 18:50:06;;;;;;;3.08;2.67;;;;;;;21.77;37.73;101684.03;16116854;19;129538;-43
2023/06/07 18:55:29;;;;;;;6.43;2.70;;;;;;;21.77;37.39;101694.31;16116017;19;130356;-43
2023/06/07 19:00:52;;;;;;;4.25;2.70;;;;;;;21.77;37.94;101691.53;16115201;19;130658;-44
2023/06/07 19:06:14;;;;;;;6.72;2.85;;;;;;;21.74;37.94;101684.53;16115395;19;129376;-45
2023/06/07 19:11:36;;;;;;;4.18;2.78;;;;;;;21.74;37.55;101687.31;16118381;19;129508;-44
2023/06/07 19:16:58;;;;;;;3.75;2.83;;;;;;;21.73;37.45;101682.84;16116241;19;129772;-45
2023/06/07 19:22:20;;;;;;;4.15;3.03;;;;;;;21.73;37.61;101685.63;16115926;19;130694;-45
2023/06/07 19:27:42;;;;;;;4.57;2.65;;;;;;;21.72;37.92;101689.50;16115915;19;130196;-43
2023/06/07 19:33:04;;;;;;;6.07;3.05;;;;;;;21.71;38.07;101679.44;16114841;19;131405;-46
2023/06/07 19:38:26;;;;;;;5.00;2.70;;;;;;;21.71;37.83;101689.75;16112469;19;129415;-45
2023/06/07 19:43:48;;;;;;;4.75;2.90;;;;;;;21.70;37.62;101704.75;16114673;19;129398;-42
2023/06/07 19:49:10;;;;;;;3.65;2.50;;;;;;;21.70;37.98;101710.34;16112049;19;129912;-48
2023/06/07 19:54:33;;;;;;;4.28;2.58;;;;;;;21.69;37.90;101703.91;16112741;19;129479;-46
2023/06/07 19:59:55;;;;;;;5.38;2.47;;;;;;;21.69;37.83;101708.66;16112037;19;132893;-46
2023/06/07 20:05:17;;;;;;;4.20;2.28;;;;;;;21.69;38.07;101712.25;16113168;19;130947;-45
2023/06/07 20:10:39;;;;;;;5.38;2.67;;;;;;;21.69;38.30;101717.00;16112774;19;129767;-42
2023/06/07 20:16:01;;;;;;;5.18;2.80;;;;;;;21.67;38.17;101722.78;16112924;19;129780;-44
2023/06/07 20:21:23;;;;;;;4.20;2.53;;;;;;;21.67;38.25;101723.66;16110859;19;129782;-43
2023/06/07 20:26:46;;;;;;;5.45;2.70;;;;;;;21.67;38.20;101722.78;16118740;19;130632;-43
2023/06/07 20:32:09;;;;;;;7.20;3.05;;;;;;;21.65;38.19;101725.84;16119808;19;130263;-43
2023/06/07 20:37:32;;;;;;;7.00;2.63;;;;;;;21.65;38.17;101725.84;16114251;19;130336;-43
2023/06/07 20:42:54;;;;;;;9.02;2.97;;;;;;;21.65;38.66;101730.56;16122327;19;129915;-49
2023/06/07 20:48:16;;;;;;;8.40;2.95;;;;;;;21.65;38.60;101730.56;16126782;19;130721;-44
2023/06/07 20:53:38;;;;;;;9.48;3.00;;;;;;;21.65;38.62;101733.38;16125802;19;130388;-42
2023/06/07 20:59:00;;;;;;;7.20;3.05;;;;;;;21.64;38.54;101735.28;16125468;19;129437;-45
2023/06/07 21:04:22;;;;;;;6.82;3.25;;;;;;;21.64;38.54;101734.44;16121706;19;130353;-48
2023/06/07 21:09:44;;;;;;;5.53;2.90;;;;;;;21.64;38.42;101742.81;16123265;19;130072;-43
2023/06/07 21:15:06;;;;;;;7.18;2.85;;;;;;;21.64;38.12;101748.38;16122219;19;130482;-45
2023/06/07 21:20:28;;;;;;;7.15;2.97;;;;;;;21.62;38.27;101743.03;16122605;19;130186;-45
2023/06/07 21:25:50;;;;;;;9.95;3.38;;;;;;;21.62;38.70;101731.91;16123155;19;130647;-44
2023/06/07 21:31:12;;;;;;;4.30;2.90;;;;;;;21.62;38.48;101736.63;16123481;19;131287;-43
2023/06/07 21:36:34;;;;;;;6.93;3.20;;;;;;;21.62;38.58;101739.41;16118209;19;130530;-42
2023/06/07 21:41:57;;;;;;;7.97;3.05;;;;;;;21.60;38.43;101745.22;16122321;19;129159;-43
2023/06/07 21:47:19;;;;;;;8.10;3.00;;;;;;;21.59;38.71;101754.69;16122486;19;129479;-44
2023/06/07 21:52:41;;;;;;;8.82;3.75;;;;;;;21.58;38.96;101753.00;16120739;19;129546;-45
2023/06/07 21:58:03;;;;;;;8.18;3.40;;;;;;;21.59;38.70;101745.47;16116981;19;131080;-46
2023/06/07 22:03:25;;;;;;;14.68;3.45;;;;;;;21.58;38.71;101758.56;16119189;19;130837;-49
2023/06/07 22:08:46;;;;;;;6.30;2.85;;;;;;;21.57;38.96;101753.22;16120035;19;131038;-44
2023/06/07 22:14:09;;;;;;;7.15;3.05;;;;;;;21.57;38.55;101742.09;16119111;19;130106;-42
2023/06/07 22:19:31;;;;;;;6.00;3.10;;;;;;;21.56;38.77;101751.53;16117651;19;130355;-43
2023/06/07 22:24:53;;;;;;;9.65;3.42;;;;;;;21.55;38.80;101747.91;16118166;19;129566;-47
2023/06/07 22:30:15;;;;;;;8.80;3.50;;;;;;;21.55;38.78;101747.91;16119017;19;129639;-46
2023/06/07 22:35:39;;;;;;;8.27;3.47;;;;;;;21.54;38.98;101746.22;16119959;19;129378;-45
2023/06/07 22:41:01;;;;;;;7.57;3.45;;;;;;;21.53;38.91;101744.53;16113553;19;130052;-46
2023/06/07 22:46:24;;;;;;;7.40;3.40;;;;;;;21.53;38.73;101738.94;16116300;19;129325;-44
2023/06/07 22:51:48;;;;;;;8.48;3.95;;;;;;;21.51;39.16;101742.00;16116237;19;130288;-43
2023/06/07 22:57:10;;;;;;;6.82;2.97;;;;;;;21.52;39.03;101737.25;16117385;19;129937;-44
2023/06/07 23:02:36;;;;;;;5.93;3.45;;;;;;;21.50;38.69;101731.94;16115672;19;131699;-42
2023/06/07 23:07:59;;;;;;;8.15;3.65;;;;;;;21.50;38.97;101729.16;16114734;19;130578;-43
2023/06/07 23:13:22;;;;;;;5.07;3.10;;;;;;;21.49;38.77;101727.47;16113822;19;130216;-44
2023/06/07 23:18:44;;;;;;;9.60;3.50;;;;;;;21.48;39.10;101725.75;16114906;19;130451;-46
2023/06/07 23:24:06;;;;;;;8.82;3.88;;;;;;;21.47;39.25;101718.47;16114592;19;129660;-44
2023/06/07 23:29:29;;;;;;;6.13;3.53;;;;;;;21.47;39.17;101721.25;16111818;19;131359;-44
2023/06/07 23:34:51;;;;;;;6.60;3.50;;;;;;;21.46;39.27;101721.53;16113601;19;130441;-44
2023/06/07 23:40:15;;;;;;;8.30;3.45;;;;;;;21.46;39.34;101716.78;16114501;19;134461;-45
2023/06/07 23:45:37;;;;;;;8.03;4.13;;;;;;;21.44;38.86;101713.41;16116081;19;130684;-42
2023/06/07 23:50:59;;;;;;;8.30;3.95;;;;;;;21.44;39.12;101716.19;16113250;19;131332;-45
2023/06/07 23:56:21;;;;;;;7.07;3.15;;;;;;;21.43;38.94;101717.28;16112877;19;129692;-46
